createdAt,value
2023-02-17T00:04:52.236Z,9360.00
2023-02-17T00:09:59.422Z,9324.00
2023-02-17T00:15:06.633Z,9324.00
2023-02-17T00:20:13.814Z,-468.00
2023-02-17T00:25:20.992Z,-504.00
2023-02-17T00:30:28.318Z,-540.00
2023-02-17T00:35:35.462Z,-540.00
2023-02-17T00:40:42.621Z,-504.00
2023-02-17T00:45:49.915Z,-540.00
2023-02-17T00:50:57.106Z,-504.00
2023-02-17T00:56:04.641Z,-504.00
2023-02-17T01:01:11.510Z,-540.00
2023-02-17T01:06:18.655Z,-504.00
2023-02-17T01:11:25.846Z,-540.00
2023-02-17T01:16:33.050Z,-504.00
2023-02-17T01:21:40.266Z,-540.00
2023-02-17T01:26:47.495Z,-540.00
2023-02-17T01:31:54.744Z,-540.00
2023-02-17T01:37:01.871Z,-540.00
2023-02-17T01:42:09.046Z,-504.00
2023-02-17T01:47:16.342Z,-540.00
2023-02-17T01:52:23.484Z,-540.00
2023-02-17T01:57:30.689Z,-540.00
2023-02-17T02:02:38.231Z,-540.00
2023-02-17T02:07:45.198Z,-540.00
2023-02-17T02:12:52.464Z,-504.00
2023-02-17T02:17:59.678Z,-540.00
2023-02-17T02:23:06.949Z,-504.00
2023-02-17T02:28:14.135Z,-504.00
2023-02-17T02:33:21.384Z,-504.00
2023-02-17T02:38:28.597Z,-540.00
2023-02-17T02:43:35.887Z,-504.00
2023-02-17T02:48:43.183Z,-540.00
2023-02-17T02:53:50.368Z,-504.00
2023-02-17T02:58:57.521Z,-540.00
2023-02-17T03:04:05.013Z,-504.00
2023-02-17T03:09:11.955Z,-504.00
2023-02-17T03:14:19.180Z,-540.00
2023-02-17T03:19:26.375Z,-504.00
2023-02-17T03:24:33.542Z,-540.00
2023-02-17T03:29:40.722Z,-540.00
2023-02-17T03:34:47.904Z,-504.00
2023-02-17T03:39:55.123Z,-540.00
2023-02-17T03:45:02.417Z,-540.00
2023-02-17T03:50:09.687Z,-540.00
2023-02-17T03:55:16.842Z,-540.00
2023-02-17T04:00:24.028Z,-504.00
2023-02-17T04:05:31.225Z,-540.00
2023-02-17T04:10:38.412Z,-540.00
2023-02-17T04:15:45.625Z,-540.00
2023-02-17T04:20:52.808Z,-540.00
2023-02-17T04:25:59.935Z,-540.00
2023-02-17T04:31:07.281Z,-504.00
2023-02-17T04:36:14.343Z,-504.00
2023-02-17T04:41:21.528Z,-504.00
2023-02-17T04:46:28.843Z,-504.00
2023-02-17T04:51:35.981Z,-504.00
2023-02-17T04:56:43.145Z,-504.00
2023-02-17T05:01:50.351Z,-540.00
2023-02-17T05:06:57.575Z,-504.00
2023-02-17T05:12:04.776Z,-504.00
2023-02-17T05:17:12.011Z,-504.00
2023-02-17T05:22:19.210Z,-504.00
2023-02-17T05:27:26.357Z,-540.00
2023-02-17T05:32:33.615Z,-540.00
2023-02-17T05:37:40.852Z,-504.00
2023-02-17T05:42:48.014Z,-504.00
2023-02-17T05:47:55.209Z,-504.00
2023-02-17T05:53:02.503Z,-504.00
2023-02-17T05:58:09.632Z,-540.00
2023-02-17T06:03:16.922Z,-504.00
2023-02-17T06:08:24.104Z,-540.00
2023-02-17T06:13:31.349Z,-504.00
2023-02-17T06:18:38.615Z,-504.00
2023-02-17T06:23:45.841Z,-504.00
2023-02-17T06:28:53.060Z,-540.00
2023-02-17T06:34:00.280Z,-540.00
2023-02-17T06:39:07.505Z,-540.00
2023-02-17T06:44:14.631Z,-540.00
2023-02-17T06:49:21.878Z,-504.00
2023-02-17T06:54:29.132Z,-504.00
2023-02-17T06:59:36.280Z,-504.00
2023-02-17T07:04:43.485Z,-504.00
2023-02-17T07:09:50.678Z,-504.00
2023-02-17T07:14:57.897Z,-504.00
2023-02-17T07:20:05.149Z,-468.00
2023-02-17T07:25:12.369Z,-504.00
2023-02-17T07:30:19.603Z,-468.00
2023-02-17T07:35:26.784Z,-468.00
2023-02-17T07:40:34.036Z,-468.00
2023-02-17T07:45:41.241Z,-468.00
2023-02-17T07:50:48.510Z,-504.00
2023-02-17T07:55:55.739Z,-504.00
2023-02-17T08:01:02.934Z,-468.00
2023-02-17T08:06:10.123Z,-468.00
2023-02-17T08:11:17.389Z,-468.00
2023-02-17T08:16:24.580Z,-468.00
2023-02-17T08:21:31.759Z,12924.00
2023-02-17T08:26:39.042Z,12312.00
2023-02-17T08:31:46.335Z,11196.00
2023-02-17T08:36:53.384Z,11268.00
2023-02-17T08:42:00.694Z,11844.00
2023-02-17T08:47:07.912Z,12816.00
2023-02-17T08:52:15.046Z,13968.00
2023-02-17T08:57:22.263Z,12420.00
2023-02-17T09:02:29.406Z,11844.00
2023-02-17T09:07:36.602Z,8892.00
2023-02-17T09:12:43.818Z,10584.00
2023-02-17T09:17:50.937Z,15408.00
2023-02-17T09:22:58.165Z,16524.00
2023-02-17T09:28:05.342Z,17028.00
2023-02-17T09:33:12.509Z,14184.00
2023-02-17T09:38:19.726Z,16776.00
2023-02-17T09:43:26.972Z,15552.00
2023-02-17T09:48:34.095Z,18468.00
2023-02-17T09:53:41.267Z,17172.00
2023-02-17T09:58:48.477Z,18360.00
2023-02-17T10:03:55.656Z,17748.00
2023-02-17T10:09:02.892Z,18072.00
2023-02-17T10:14:10.094Z,17100.00
2023-02-17T10:19:17.201Z,16848.00
2023-02-17T10:24:24.459Z,15336.00
2023-02-17T10:29:31.678Z,17244.00
2023-02-17T10:34:38.719Z,17280.00
2023-02-17T10:39:45.944Z,16776.00
2023-02-17T10:44:53.234Z,14472.00
2023-02-17T10:50:00.395Z,15732.00
2023-02-17T10:55:21.967Z,15732.00
2023-02-17T11:00:14.794Z,16776.00
2023-02-17T11:05:21.933Z,16668.00
2023-02-17T11:10:29.130Z,16560.00
2023-02-17T11:15:51.312Z,16956.00
2023-02-17T11:21:03.364Z,16596.00
2023-02-17T11:26:10.625Z,18900.00
2023-02-17T11:31:17.978Z,18828.00
2023-02-17T11:36:25.141Z,20088.00
2023-02-17T11:41:32.334Z,17208.00
2023-02-17T11:46:39.638Z,15660.00
2023-02-17T11:51:46.824Z,15840.00
2023-02-17T11:56:54.078Z,14400.00
2023-02-17T12:02:01.358Z,17460.00
2023-02-17T12:07:08.542Z,14112.00
2023-02-17T12:12:15.729Z,13428.00
2023-02-17T12:17:22.930Z,14724.00
2023-02-17T12:22:30.148Z,14040.00
2023-02-17T12:27:37.253Z,12600.00
2023-02-17T12:32:44.454Z,12528.00
2023-02-17T12:37:51.638Z,13644.00
2023-02-17T12:42:58.822Z,14040.00
2023-02-17T12:48:06.044Z,14904.00
2023-02-17T12:53:13.204Z,15408.00
2023-02-17T12:58:20.365Z,14580.00
2023-02-17T13:03:27.664Z,14508.00
2023-02-17T13:08:34.851Z,13752.00
2023-02-17T13:13:42.081Z,13284.00
2023-02-17T13:18:50.465Z,13932.00
2023-02-17T13:23:56.485Z,14184.00
2023-02-17T13:29:03.685Z,17244.00
2023-02-17T13:34:10.890Z,17604.00
2023-02-17T13:39:18.060Z,17460.00
2023-02-17T13:44:25.234Z,18648.00
2023-02-17T13:49:32.441Z,15912.00
2023-02-17T13:54:39.606Z,16164.00
2023-02-17T13:59:46.858Z,14688.00
2023-02-17T14:04:55.108Z,12384.00
2023-02-17T14:10:01.245Z,11664.00
2023-02-17T14:15:08.534Z,11880.00
2023-02-17T14:20:15.761Z,11844.00
2023-02-17T14:25:22.901Z,12312.00
2023-02-17T14:30:30.183Z,8676.00
2023-02-17T14:35:37.308Z,7992.00
2023-02-17T14:40:44.748Z,7236.00
2023-02-17T14:45:52.247Z,7776.00
2023-02-17T14:50:59.550Z,9324.00
2023-02-17T14:56:07.108Z,8388.00
2023-02-17T15:01:13.918Z,7128.00
2023-02-17T15:06:21.166Z,7164.00
2023-02-17T15:11:28.393Z,6516.00
2023-02-17T15:16:35.724Z,6840.00
2023-02-17T15:21:42.872Z,8568.00
2023-02-17T15:26:50.316Z,8352.00
2023-02-17T15:31:57.977Z,8280.00
2023-02-17T15:37:05.158Z,8604.00
2023-02-17T15:42:12.463Z,7632.00
2023-02-17T15:47:19.947Z,6948.00
2023-02-17T15:52:27.376Z,5796.00
2023-02-17T15:57:34.549Z,6912.00
2023-02-17T16:02:41.824Z,5976.00
2023-02-17T16:07:49.029Z,4356.00
2023-02-17T16:12:56.482Z,4392.00
2023-02-17T16:18:03.784Z,3600.00
2023-02-17T16:23:11.322Z,2880.00
2023-02-17T16:28:18.737Z,2304.00
2023-02-17T16:33:33.178Z,1548.00
2023-02-17T16:38:38.225Z,1080.00
2023-02-17T16:43:45.754Z,432.00
2023-02-17T16:48:53.170Z,36.00
2023-02-17T16:54:00.575Z,-144.00
2023-02-17T16:59:07.681Z,-360.00
2023-02-17T17:04:15.072Z,-432.00
2023-02-17T17:09:23.028Z,-504.00
2023-02-17T17:14:30.141Z,-360.00
2023-02-17T17:19:37.611Z,-360.00
2023-02-17T17:25:00.223Z,-540.00
2023-02-17T17:30:07.668Z,-108.00
2023-02-17T17:35:15.611Z,-72.00
2023-02-17T17:40:23.051Z,-72.00
2023-02-17T17:45:30.641Z,-72.00
2023-02-17T17:50:38.355Z,72.00
2023-02-17T17:55:45.986Z,-72.00
2023-02-17T18:00:53.680Z,-468.00
2023-02-17T18:06:01.306Z,-468.00
2023-02-17T18:11:08.942Z,-468.00
2023-02-17T18:16:16.658Z,-504.00
2023-02-17T18:21:24.143Z,-468.00
2023-02-17T18:26:31.790Z,-504.00
2023-02-17T18:31:39.538Z,-468.00
2023-02-17T18:36:46.984Z,-468.00
2023-02-17T18:41:54.671Z,-468.00
2023-02-17T18:47:02.226Z,-468.00
2023-02-17T18:52:10.410Z,-468.00
2023-02-17T18:57:17.972Z,-468.00
2023-02-17T19:02:25.409Z,-432.00
2023-02-17T19:07:32.805Z,-504.00
2023-02-17T19:12:40.348Z,-468.00
2023-02-17T19:17:47.890Z,-468.00
2023-02-17T19:22:55.517Z,-468.00
2023-02-17T19:28:03.149Z,-468.00
2023-02-17T19:33:10.832Z,6552.00
2023-02-17T19:38:21.852Z,6444.00
2023-02-17T19:43:31.723Z,6624.00
2023-02-17T19:48:38.993Z,6444.00
2023-02-17T19:53:46.182Z,6372.00
2023-02-17T19:58:53.652Z,6840.00
2023-02-17T20:04:00.927Z,6444.00
2023-02-17T20:09:08.456Z,6696.00
2023-02-17T20:14:16.091Z,6696.00
2023-02-17T20:19:23.673Z,6408.00
2023-02-17T20:24:31.182Z,6768.00
2023-02-17T20:29:38.931Z,6372.00
2023-02-17T20:34:46.240Z,6768.00
2023-02-17T20:39:53.831Z,6732.00
2023-02-17T20:45:01.976Z,6768.00
2023-02-17T20:50:09.468Z,6408.00
2023-02-17T20:55:17.105Z,6768.00
2023-02-17T21:00:24.730Z,6516.00
2023-02-17T21:05:32.316Z,6408.00
2023-02-17T21:10:39.668Z,6732.00
2023-02-17T21:15:47.467Z,6480.00
2023-02-17T21:20:54.848Z,7092.00
2023-02-17T21:26:02.279Z,7236.00
2023-02-17T21:31:09.997Z,7128.00
2023-02-17T21:36:17.317Z,5940.00
2023-02-17T21:41:25.106Z,6408.00
2023-02-17T21:46:32.410Z,6696.00
2023-02-17T21:51:39.554Z,7020.00
2023-02-17T21:56:47.013Z,6984.00
2023-02-17T22:01:54.451Z,6984.00
2023-02-17T22:07:01.644Z,6912.00
2023-02-17T22:12:08.842Z,7056.00
2023-02-17T22:17:16.071Z,7020.00
2023-02-17T22:22:23.254Z,7308.00
2023-02-17T22:27:30.456Z,7308.00
2023-02-17T22:32:37.685Z,7308.00
2023-02-17T22:37:44.810Z,6588.00
2023-02-17T22:42:51.993Z,5976.00
2023-02-17T22:47:59.205Z,5940.00
2023-02-17T22:53:06.366Z,5940.00
2023-02-17T22:58:13.578Z,5400.00
2023-02-17T23:03:20.809Z,5256.00
2023-02-17T23:08:27.932Z,5760.00
2023-02-17T23:13:35.195Z,5436.00
2023-02-17T23:18:42.450Z,5400.00
2023-02-17T23:23:49.579Z,5328.00
2023-02-17T23:28:56.752Z,5364.00
2023-02-17T23:34:03.974Z,5364.00
2023-02-17T23:39:11.137Z,5400.00
2023-02-17T23:44:18.328Z,5868.00
2023-02-17T23:49:25.559Z,5544.00
2023-02-17T23:54:32.671Z,5904.00
2023-02-17T23:59:39.852Z,5616.00
